createdAt,value
2022-12-31T00:01:19.419Z,3.90
2022-12-31T00:04:26.088Z,3.17
2022-12-31T00:10:41.885Z,3.53
2022-12-31T00:13:49.892Z,3.80
2022-12-31T00:16:55.508Z,3.17
2022-12-31T00:20:00.935Z,3.87
2022-12-31T00:23:06.850Z,3.80
2022-12-31T00:26:15.153Z,3.87
2022-12-31T00:29:22.137Z,4.80
2022-12-31T00:32:28.032Z,3.70
2022-12-31T00:35:34.971Z,4.03
2022-12-31T00:38:41.336Z,3.97
2022-12-31T00:41:47.367Z,4.00
2022-12-31T00:44:54.696Z,3.87
2022-12-31T00:48:00.146Z,4.03
2022-12-31T00:51:06.907Z,3.70
2022-12-31T00:54:13.693Z,3.40
2022-12-31T00:57:19.620Z,3.37
2022-12-31T01:00:26.940Z,3.50
2022-12-31T01:03:32.680Z,3.80
2022-12-31T01:06:38.651Z,4.30
2022-12-31T01:09:44.604Z,3.97
2022-12-31T01:12:50.547Z,4.50
2022-12-31T01:15:58.181Z,3.97
2022-12-31T01:19:06.576Z,4.03
2022-12-31T01:22:13.335Z,3.10
2022-12-31T01:25:20.712Z,4.17
2022-12-31T01:28:26.591Z,4.00
2022-12-31T01:31:34.336Z,3.30
2022-12-31T01:34:40.298Z,4.20
2022-12-31T01:37:45.720Z,3.30
2022-12-31T01:40:51.803Z,4.47
2022-12-31T01:44:00.326Z,3.60
2022-12-31T01:47:11.474Z,3.73
2022-12-31T01:50:21.468Z,2.70
2022-12-31T01:53:27.082Z,2.83
2022-12-31T01:56:32.775Z,3.80
2022-12-31T01:59:38.600Z,3.60
2022-12-31T02:03:07.161Z,2.87
2022-12-31T02:06:16.827Z,3.83
2022-12-31T02:09:21.915Z,3.60
2022-12-31T02:12:27.203Z,3.80
2022-12-31T02:15:39.448Z,3.93
2022-12-31T02:18:51.321Z,3.70
2022-12-31T02:22:01.340Z,2.80
2022-12-31T02:25:33.469Z,3.50
2022-12-31T02:28:56.291Z,3.30
2022-12-31T02:32:05.507Z,2.90
2022-12-31T02:35:14.966Z,3.33
2022-12-31T02:38:23.196Z,3.43
2022-12-31T02:41:45.530Z,3.33
2022-12-31T02:44:50.731Z,3.40
2022-12-31T02:48:12.198Z,3.20
2022-12-31T02:51:27.657Z,3.73
2022-12-31T02:54:37.816Z,3.00
2022-12-31T02:57:47.302Z,2.53
2022-12-31T03:01:13.296Z,3.37
2022-12-31T03:04:36.355Z,2.20
2022-12-31T03:07:42.764Z,3.10
2022-12-31T03:10:47.902Z,3.00
2022-12-31T03:13:52.139Z,2.70
2022-12-31T03:16:57.294Z,2.77
2022-12-31T03:20:21.238Z,2.80
2022-12-31T03:23:28.709Z,3.03
2022-12-31T03:26:32.823Z,2.93
2022-12-31T03:29:38.056Z,2.93
2022-12-31T03:32:43.521Z,4.10
2022-12-31T03:35:50.915Z,2.00
2022-12-31T03:38:56.019Z,3.10
2022-12-31T03:42:01.316Z,3.27
2022-12-31T03:45:07.850Z,2.77
2022-12-31T03:48:15.390Z,2.90
2022-12-31T03:51:22.211Z,3.00
2022-12-31T03:54:27.406Z,2.87
2022-12-31T03:57:33.946Z,3.73
2022-12-31T04:00:39.172Z,2.97
2022-12-31T04:03:44.580Z,3.07
2022-12-31T04:06:51.248Z,3.23
2022-12-31T04:09:56.645Z,3.10
2022-12-31T04:13:04.517Z,2.60
2022-12-31T04:16:09.889Z,2.50
2022-12-31T04:19:15.378Z,2.80
2022-12-31T04:22:22.264Z,2.07
2022-12-31T04:25:27.541Z,2.63
2022-12-31T04:28:32.613Z,2.50
2022-12-31T04:31:38.007Z,2.50
2022-12-31T04:34:43.037Z,2.20
2022-12-31T04:37:49.728Z,2.57
2022-12-31T04:41:12.533Z,2.83
2022-12-31T04:44:17.899Z,2.20
2022-12-31T04:47:24.024Z,3.17
2022-12-31T04:50:29.238Z,2.80
2022-12-31T04:53:35.764Z,3.10
2022-12-31T04:56:41.074Z,3.30
2022-12-31T04:59:46.182Z,3.43
2022-12-31T05:02:51.526Z,3.07
2022-12-31T05:06:03.458Z,2.60
2022-12-31T05:09:10.027Z,2.80
2022-12-31T05:12:15.209Z,2.70
2022-12-31T05:15:20.332Z,2.60
2022-12-31T05:18:25.685Z,2.33
2022-12-31T05:21:30.843Z,2.70
2022-12-31T05:24:37.347Z,2.37
2022-12-31T05:27:42.569Z,2.43
2022-12-31T05:30:50.283Z,1.90
2022-12-31T05:33:55.614Z,2.60
2022-12-31T05:37:00.653Z,2.70
2022-12-31T05:40:08.382Z,2.53
2022-12-31T05:43:13.493Z,2.07
2022-12-31T05:46:18.680Z,2.17
2022-12-31T05:49:23.766Z,2.57
2022-12-31T05:52:28.891Z,2.50
2022-12-31T05:55:35.697Z,2.47
2022-12-31T05:58:40.804Z,2.50
2022-12-31T06:01:45.936Z,2.30
2022-12-31T06:04:51.160Z,2.37
2022-12-31T06:07:56.712Z,2.40
2022-12-31T06:11:03.246Z,2.07
2022-12-31T06:14:08.524Z,2.20
2022-12-31T06:17:13.596Z,2.30
2022-12-31T06:20:19.025Z,2.03
2022-12-31T06:23:24.193Z,2.10
2022-12-31T06:26:30.596Z,2.17
2022-12-31T06:29:35.761Z,2.00
2022-12-31T06:32:40.938Z,1.70
2022-12-31T06:35:46.129Z,2.23
2022-12-31T06:38:51.519Z,1.97
2022-12-31T06:41:58.070Z,1.97
2022-12-31T06:45:03.222Z,2.17
2022-12-31T06:48:08.760Z,1.77
2022-12-31T06:51:17.530Z,1.90
2022-12-31T06:54:23.006Z,2.00
2022-12-31T06:57:30.722Z,1.70
2022-12-31T07:00:37.480Z,2.03
2022-12-31T07:03:47.166Z,1.80
2022-12-31T07:06:55.235Z,2.00
2022-12-31T07:10:09.557Z,1.70
2022-12-31T07:13:34.261Z,1.90
2022-12-31T07:16:52.128Z,2.03
2022-12-31T07:20:01.507Z,1.87
2022-12-31T07:23:08.590Z,1.80
2022-12-31T07:26:20.223Z,1.70
2022-12-31T07:29:34.650Z,1.43
2022-12-31T07:33:03.419Z,1.50
2022-12-31T07:36:15.727Z,1.80
2022-12-31T07:39:27.675Z,1.60
2022-12-31T07:42:37.919Z,1.57
2022-12-31T07:45:49.644Z,1.77
2022-12-31T07:48:55.340Z,1.60
2022-12-31T07:52:01.374Z,1.30
2022-12-31T07:55:07.406Z,1.80
2022-12-31T07:58:21.592Z,1.50
2022-12-31T08:01:39.129Z,1.70
2022-12-31T08:04:48.813Z,1.53
2022-12-31T08:07:59.963Z,1.33
2022-12-31T08:11:13.078Z,1.60
2022-12-31T08:14:18.439Z,1.67
2022-12-31T08:17:25.588Z,1.40
2022-12-31T08:20:32.490Z,1.50
2022-12-31T08:23:41.181Z,1.60
2022-12-31T08:26:53.520Z,1.73
2022-12-31T08:30:03.637Z,1.50
2022-12-31T08:33:14.987Z,1.60
2022-12-31T08:36:28.202Z,1.43
2022-12-31T08:39:42.899Z,1.57
2022-12-31T08:42:59.342Z,1.40
2022-12-31T08:46:05.302Z,1.70
2022-12-31T08:49:14.792Z,1.67
2022-12-31T08:52:25.140Z,1.63
2022-12-31T08:55:31.351Z,1.50
2022-12-31T08:58:45.996Z,1.77
2022-12-31T09:02:27.306Z,1.80
2022-12-31T09:05:40.619Z,1.87
2022-12-31T09:08:51.656Z,1.50
2022-12-31T09:12:05.828Z,1.83
2022-12-31T09:15:14.437Z,1.60
2022-12-31T09:18:20.030Z,1.50
2022-12-31T09:21:27.011Z,1.93
2022-12-31T09:24:32.726Z,1.70
2022-12-31T09:27:41.576Z,1.70
2022-12-31T09:30:52.567Z,1.80
2022-12-31T09:34:01.859Z,2.03
2022-12-31T09:37:12.800Z,1.70
2022-12-31T09:40:51.163Z,2.17
2022-12-31T09:44:40.501Z,2.27
2022-12-31T09:48:06.465Z,1.60
2022-12-31T09:51:25.483Z,1.80
2022-12-31T09:54:41.547Z,2.13
2022-12-31T09:57:55.290Z,2.00
2022-12-31T10:01:05.567Z,1.70
2022-12-31T10:04:55.318Z,1.53
2022-12-31T10:08:05.738Z,1.87
2022-12-31T10:11:21.224Z,2.10
2022-12-31T10:14:43.708Z,1.63
2022-12-31T10:18:00.582Z,1.67
2022-12-31T10:21:21.015Z,1.90
2022-12-31T10:24:47.509Z,2.13
2022-12-31T10:28:00.149Z,1.87
2022-12-31T10:31:12.005Z,2.00
2022-12-31T10:34:18.768Z,2.13
2022-12-31T10:37:28.212Z,2.23
2022-12-31T10:40:46.968Z,1.87
2022-12-31T10:44:29.416Z,2.10
2022-12-31T10:48:09.349Z,1.90
2022-12-31T10:51:46.862Z,2.03
2022-12-31T10:55:25.537Z,2.30
2022-12-31T10:59:00.608Z,2.73
2022-12-31T11:02:30.616Z,2.60
2022-12-31T11:06:06.091Z,2.07
2022-12-31T11:09:49.879Z,1.90
2022-12-31T11:13:26.395Z,2.07
2022-12-31T11:16:58.946Z,2.47
2022-12-31T11:20:28.603Z,2.10
2022-12-31T11:23:40.837Z,2.20
2022-12-31T11:26:55.932Z,2.30
2022-12-31T11:30:07.319Z,2.07
2022-12-31T11:33:22.760Z,2.00
2022-12-31T11:36:38.169Z,2.50
2022-12-31T11:39:51.092Z,2.30
2022-12-31T11:42:59.858Z,3.50
2022-12-31T11:46:22.187Z,2.50
2022-12-31T11:49:47.906Z,2.80
2022-12-31T11:52:58.835Z,2.77
2022-12-31T11:56:12.893Z,2.37
2022-12-31T11:59:19.882Z,2.40
2022-12-31T12:02:28.321Z,2.57
2022-12-31T12:05:34.314Z,2.27
2022-12-31T12:08:41.210Z,2.43
2022-12-31T12:11:46.676Z,2.60
2022-12-31T12:14:53.983Z,2.40
2022-12-31T12:18:01.503Z,2.87
2022-12-31T12:21:10.667Z,2.53
2022-12-31T12:24:22.531Z,3.13
2022-12-31T12:27:30.758Z,2.73
2022-12-31T12:30:44.149Z,2.80
2022-12-31T12:33:50.420Z,2.40
2022-12-31T12:36:55.814Z,2.50
2022-12-31T12:40:04.033Z,2.70
2022-12-31T12:43:24.230Z,2.37
2022-12-31T12:46:33.511Z,2.77
2022-12-31T12:49:41.548Z,2.60
2022-12-31T12:53:08.077Z,2.23
2022-12-31T12:56:23.469Z,2.73
2022-12-31T12:59:58.997Z,2.33
2022-12-31T13:03:22.330Z,2.60
2022-12-31T13:06:34.922Z,2.30
2022-12-31T13:09:54.118Z,2.50
2022-12-31T13:13:23.717Z,2.47
2022-12-31T13:16:36.753Z,2.30
2022-12-31T13:19:45.346Z,2.80
2022-12-31T13:22:53.620Z,2.77
2022-12-31T13:26:07.221Z,2.20
2022-12-31T13:29:18.976Z,2.03
2022-12-31T13:32:29.425Z,2.63
2022-12-31T13:35:41.213Z,2.57
2022-12-31T13:38:48.645Z,3.00
2022-12-31T13:41:58.352Z,2.13
2022-12-31T13:45:07.822Z,2.50
2022-12-31T13:48:18.777Z,2.67
2022-12-31T13:51:29.145Z,2.30
2022-12-31T13:54:40.027Z,1.97
2022-12-31T13:57:49.037Z,2.27
2022-12-31T14:01:01.462Z,1.93
2022-12-31T14:04:10.096Z,2.50
2022-12-31T14:07:18.972Z,2.40
2022-12-31T14:10:33.716Z,2.30
2022-12-31T14:13:52.052Z,2.17
2022-12-31T14:17:03.848Z,2.23
2022-12-31T14:20:20.231Z,2.30
2022-12-31T14:23:31.563Z,2.40
2022-12-31T14:26:38.773Z,2.53
2022-12-31T14:29:47.276Z,1.90
2022-12-31T14:33:06.732Z,2.27
2022-12-31T14:36:22.559Z,2.50
2022-12-31T14:39:37.003Z,2.50
2022-12-31T14:42:47.636Z,2.53
2022-12-31T14:46:02.299Z,2.50
2022-12-31T14:49:22.576Z,2.27
2022-12-31T14:52:30.970Z,2.20
2022-12-31T14:55:37.718Z,2.43
2022-12-31T14:58:43.725Z,2.33
2022-12-31T15:01:49.069Z,2.87
2022-12-31T15:05:11.423Z,2.30
2022-12-31T15:08:42.301Z,2.77
2022-12-31T15:12:02.534Z,2.53
2022-12-31T15:15:38.570Z,2.30
2022-12-31T15:18:56.593Z,2.43
2022-12-31T15:22:08.118Z,3.00
2022-12-31T15:25:27.826Z,2.80
2022-12-31T15:28:36.415Z,2.80
2022-12-31T15:31:47.734Z,2.77
2022-12-31T15:35:03.048Z,2.60
2022-12-31T15:38:31.179Z,3.33
2022-12-31T15:42:02.906Z,2.87
2022-12-31T15:45:09.647Z,3.20
2022-12-31T15:48:18.311Z,2.50
2022-12-31T15:51:26.794Z,2.37
2022-12-31T15:54:37.549Z,2.37
2022-12-31T15:57:43.857Z,2.20
2022-12-31T16:00:59.049Z,2.43
2022-12-31T16:04:06.373Z,2.60
2022-12-31T16:07:13.809Z,3.17
2022-12-31T16:10:25.120Z,2.43
2022-12-31T16:13:31.393Z,2.67
2022-12-31T16:16:36.630Z,2.70
2022-12-31T16:19:46.227Z,3.07
2022-12-31T16:22:56.263Z,2.83
2022-12-31T16:26:04.938Z,3.40
2022-12-31T16:29:16.320Z,2.73
2022-12-31T16:32:21.793Z,3.20
2022-12-31T16:35:28.869Z,2.77
2022-12-31T16:38:35.788Z,2.47
2022-12-31T16:41:45.298Z,2.83
2022-12-31T16:44:51.484Z,3.13
2022-12-31T16:47:56.748Z,2.90
2022-12-31T16:51:02.010Z,3.07
2022-12-31T16:54:07.335Z,2.63
2022-12-31T16:57:22.330Z,3.23
2022-12-31T17:00:28.272Z,2.40
2022-12-31T17:03:33.406Z,2.87
2022-12-31T17:06:38.694Z,3.33
2022-12-31T17:09:43.913Z,3.00
2022-12-31T17:16:20.711Z,2.70
2022-12-31T17:19:40.787Z,2.93
2022-12-31T17:22:46.502Z,3.33
2022-12-31T17:25:59.590Z,3.53
2022-12-31T17:29:08.044Z,2.87
2022-12-31T17:32:31.264Z,3.47
2022-12-31T17:35:41.998Z,2.97
2022-12-31T17:38:47.334Z,3.10
2022-12-31T17:41:54.107Z,3.53
2022-12-31T17:45:02.528Z,3.17
2022-12-31T17:48:08.681Z,3.00
2022-12-31T17:51:13.768Z,3.47
2022-12-31T17:54:19.896Z,3.73
2022-12-31T17:57:28.223Z,3.47
2022-12-31T18:00:35.588Z,2.50
2022-12-31T18:03:40.681Z,3.40
2022-12-31T18:06:46.127Z,3.80
2022-12-31T18:09:51.373Z,2.90
2022-12-31T18:12:56.744Z,3.00
2022-12-31T18:16:03.450Z,3.20
2022-12-31T18:19:23.480Z,3.37
2022-12-31T18:22:39.059Z,3.53
2022-12-31T18:28:50.161Z,3.17
2022-12-31T18:31:56.904Z,3.07
2022-12-31T18:35:02.248Z,3.03
2022-12-31T18:38:11.712Z,2.83
2022-12-31T18:41:19.460Z,3.60
2022-12-31T18:44:24.936Z,3.80
2022-12-31T18:47:37.500Z,3.40
2022-12-31T18:50:43.547Z,3.97
2022-12-31T18:53:49.168Z,3.30
2022-12-31T18:56:57.191Z,2.90
2022-12-31T19:00:02.729Z,2.83
2022-12-31T19:03:16.887Z,3.40
2022-12-31T19:06:22.200Z,2.93
2022-12-31T19:12:52.831Z,3.07
2022-12-31T19:15:58.845Z,3.30
2022-12-31T19:19:08.739Z,3.33
2022-12-31T19:22:16.403Z,2.87
2022-12-31T19:25:23.534Z,3.43
2022-12-31T19:28:29.742Z,3.30
2022-12-31T19:31:34.768Z,3.53
2022-12-31T19:34:41.708Z,2.87
2022-12-31T19:37:48.342Z,3.63
2022-12-31T19:40:54.455Z,3.50
2022-12-31T19:43:59.720Z,3.27
2022-12-31T19:47:04.978Z,3.27
2022-12-31T19:50:15.353Z,2.87
2022-12-31T19:53:22.816Z,3.73
2022-12-31T19:56:28.236Z,3.50
2022-12-31T19:59:33.529Z,3.70
2022-12-31T20:02:38.902Z,2.87
2022-12-31T20:05:45.711Z,3.20
2022-12-31T20:08:50.865Z,2.93
2022-12-31T20:11:56.022Z,3.27
2022-12-31T20:15:01.397Z,3.80
2022-12-31T20:18:06.917Z,4.17
2022-12-31T20:21:17.820Z,3.20
2022-12-31T20:24:23.525Z,3.53
2022-12-31T20:27:28.777Z,3.20
2022-12-31T20:30:34.008Z,3.00
2022-12-31T20:33:39.081Z,3.27
2022-12-31T20:36:45.814Z,3.70
2022-12-31T20:39:51.007Z,3.60
2022-12-31T20:42:56.178Z,3.50
2022-12-31T20:46:10.942Z,3.60
2022-12-31T20:49:31.325Z,3.80
2022-12-31T20:52:46.564Z,3.93
2022-12-31T20:55:51.977Z,3.80
2022-12-31T20:58:57.161Z,3.77
2022-12-31T21:05:27.814Z,4.17
2022-12-31T21:08:35.431Z,4.70
2022-12-31T21:11:57.952Z,5.00
2022-12-31T21:15:03.492Z,5.07
2022-12-31T21:18:09.662Z,4.67
2022-12-31T21:21:16.554Z,4.10
2022-12-31T21:24:24.351Z,3.43
2022-12-31T21:27:29.930Z,3.40
2022-12-31T21:30:35.159Z,3.83
2022-12-31T21:33:40.349Z,3.00
2022-12-31T21:36:45.790Z,2.97
2022-12-31T21:39:52.481Z,3.70
2022-12-31T21:42:57.586Z,4.30
2022-12-31T21:46:03.640Z,3.70
2022-12-31T21:49:08.866Z,3.67
2022-12-31T21:52:30.732Z,3.73
2022-12-31T21:55:57.234Z,2.83
2022-12-31T21:59:19.535Z,3.50
2022-12-31T22:02:42.399Z,3.43
2022-12-31T22:06:10.179Z,3.43
2022-12-31T22:09:15.361Z,3.43
2022-12-31T22:12:22.288Z,2.80
2022-12-31T22:15:27.535Z,3.40
2022-12-31T22:18:34.555Z,2.57
2022-12-31T22:21:39.725Z,3.00
2022-12-31T22:24:44.788Z,2.87
2022-12-31T22:28:27.561Z,3.50
2022-12-31T22:31:18.729Z,3.30
2022-12-31T22:34:24.001Z,4.17
2022-12-31T22:37:56.486Z,3.10
2022-12-31T22:41:02.381Z,3.20
2022-12-31T22:44:09.377Z,3.07
2022-12-31T22:47:14.890Z,4.47
2022-12-31T22:50:20.335Z,4.70
2022-12-31T22:53:25.670Z,5.80
2022-12-31T22:56:30.871Z,9.17
2022-12-31T22:59:37.581Z,18.47
2022-12-31T23:02:47.948Z,17.10
2022-12-31T23:05:53.852Z,48.70
2022-12-31T23:09:16.723Z,38.30
2022-12-31T23:12:21.905Z,12.57
2022-12-31T23:15:46.212Z,15.80
2022-12-31T23:19:09.114Z,15.07
2022-12-31T23:22:32.626Z,18.17
2022-12-31T23:25:39.475Z,16.37
2022-12-31T23:28:44.621Z,16.50
2022-12-31T23:31:51.210Z,19.07
2022-12-31T23:34:56.508Z,18.93
2022-12-31T23:38:01.845Z,20.30
2022-12-31T23:41:13.895Z,23.10
2022-12-31T23:44:19.051Z,23.50
2022-12-31T23:47:25.637Z,22.03
2022-12-31T23:50:30.695Z,22.17
2022-12-31T23:53:35.819Z,25.03
2022-12-31T23:56:41.057Z,25.97
2022-12-31T23:59:46.206Z,26.27
